sensor_id;sensor_type;location;lat;lon;timestamp;P1;durP1;ratioP1;P2;durP2;ratioP2
24485;SDS011;13449;49.374;8.584;2023-07-30T00:00:04;6.90;;;2.55;;
24485;SDS011;13449;49.374;8.584;2023-07-30T00:02:32;3.42;;;2.53;;
24485;SDS011;13449;49.374;8.584;2023-07-30T00:04:59;2.75;;;2.33;;
24485;SDS011;13449;49.374;8.584;2023-07-30T00:07:27;4.03;;;2.50;;
24485;SDS011;13449;49.374;8.584;2023-07-30T00:09:56;4.93;;;2.65;;
24485;SDS011;13449;49.374;8.584;2023-07-30T00:12:25;7.90;;;2.70;;
24485;SDS011;13449;49.374;8.584;2023-07-30T00:14:51;3.15;;;2.55;;
24485;SDS011;13449;49.374;8.584;2023-07-30T00:17:18;5.57;;;2.80;;
24485;SDS011;13449;49.374;8.584;2023-07-30T00:19:44;3.17;;;2.80;;
24485;SDS011;13449;49.374;8.584;2023-07-30T00:22:11;6.88;;;2.33;;
24485;SDS011;13449;49.374;8.584;2023-07-30T00:24:37;4.03;;;3.05;;
24485;SDS011;13449;49.374;8.584;2023-07-30T00:27:04;11.40;;;3.15;;
24485;SDS011;13449;49.374;8.584;2023-07-30T00:29:31;3.30;;;3.00;;
24485;SDS011;13449;49.374;8.584;2023-07-30T00:31:57;8.13;;;2.95;;
24485;SDS011;13449;49.374;8.584;2023-07-30T00:34:23;10.48;;;3.10;;
24485;SDS011;13449;49.374;8.584;2023-07-30T00:36:50;4.95;;;3.30;;
24485;SDS011;13449;49.374;8.584;2023-07-30T00:39:16;4.32;;;2.47;;
24485;SDS011;13449;49.374;8.584;2023-07-30T00:41:43;3.25;;;2.95;;
24485;SDS011;13449;49.374;8.584;2023-07-30T00:44:09;10.23;;;3.80;;
24485;SDS011;13449;49.374;8.584;2023-07-30T00:46:36;7.47;;;3.35;;
24485;SDS011;13449;49.374;8.584;2023-07-30T00:49:03;4.88;;;3.35;;
24485;SDS011;13449;49.374;8.584;2023-07-30T00:51:30;7.43;;;3.90;;
24485;SDS011;13449;49.374;8.584;2023-07-30T00:53:59;9.02;;;3.55;;
24485;SDS011;13449;49.374;8.584;2023-07-30T00:56:26;9.00;;;4.20;;
24485;SDS011;13449;49.374;8.584;2023-07-30T00:58:53;5.88;;;3.15;;
24485;SDS011;13449;49.374;8.584;2023-07-30T01:01:20;8.98;;;4.03;;
24485;SDS011;13449;49.374;8.584;2023-07-30T01:03:47;6.32;;;3.60;;
24485;SDS011;13449;49.374;8.584;2023-07-30T01:06:16;7.15;;;3.58;;
24485;SDS011;13449;49.374;8.584;2023-07-30T01:08:44;7.07;;;4.00;;
24485;SDS011;13449;49.374;8.584;2023-07-30T01:11:12;4.25;;;3.55;;
24485;SDS011;13449;49.374;8.584;2023-07-30T01:13:40;10.25;;;3.53;;
24485;SDS011;13449;49.374;8.584;2023-07-30T01:16:12;6.13;;;3.90;;
24485;SDS011;13449;49.374;8.584;2023-07-30T01:18:38;9.80;;;4.32;;
24485;SDS011;13449;49.374;8.584;2023-07-30T01:21:07;4.80;;;3.40;;
24485;SDS011;13449;49.374;8.584;2023-07-30T01:23:36;10.05;;;3.40;;
24485;SDS011;13449;49.374;8.584;2023-07-30T01:26:04;6.18;;;3.40;;
24485;SDS011;13449;49.374;8.584;2023-07-30T01:28:42;9.50;;;3.35;;
24485;SDS011;13449;49.374;8.584;2023-07-30T01:31:14;8.05;;;3.55;;
24485;SDS011;13449;49.374;8.584;2023-07-30T01:33:42;5.93;;;3.22;;
24485;SDS011;13449;49.374;8.584;2023-07-30T01:36:15;4.55;;;2.92;;
24485;SDS011;13449;49.374;8.584;2023-07-30T01:38:43;6.38;;;3.38;;
24485;SDS011;13449;49.374;8.584;2023-07-30T01:41:10;3.47;;;3.17;;
24485;SDS011;13449;49.374;8.584;2023-07-30T01:43:36;6.93;;;2.80;;
24485;SDS011;13449;49.374;8.584;2023-07-30T01:46:03;4.20;;;3.08;;
24485;SDS011;13449;49.374;8.584;2023-07-30T01:48:29;18.00;;;4.13;;
24485;SDS011;13449;49.374;8.584;2023-07-30T01:50:56;10.75;;;3.55;;
24485;SDS011;13449;49.374;8.584;2023-07-30T01:53:22;3.97;;;3.00;;
24485;SDS011;13449;49.374;8.584;2023-07-30T01:55:48;2.45;;;2.10;;
24485;SDS011;13449;49.374;8.584;2023-07-30T01:58:15;9.68;;;2.53;;
24485;SDS011;13449;49.374;8.584;2023-07-30T02:00:44;4.53;;;2.70;;
24485;SDS011;13449;49.374;8.584;2023-07-30T02:03:11;3.47;;;2.40;;
24485;SDS011;13449;49.374;8.584;2023-07-30T02:05:37;4.53;;;2.70;;
24485;SDS011;13449;49.374;8.584;2023-07-30T02:08:07;3.40;;;2.42;;
24485;SDS011;13449;49.374;8.584;2023-07-30T02:10:33;8.02;;;2.58;;
24485;SDS011;13449;49.374;8.584;2023-07-30T02:13:02;3.20;;;2.25;;
24485;SDS011;13449;49.374;8.584;2023-07-30T02:15:29;5.68;;;2.05;;
24485;SDS011;13449;49.374;8.584;2023-07-30T02:17:55;5.72;;;2.17;;
24485;SDS011;13449;49.374;8.584;2023-07-30T02:20:24;2.90;;;2.47;;
24485;SDS011;13449;49.374;8.584;2023-07-30T02:22:50;5.68;;;2.47;;
24485;SDS011;13449;49.374;8.584;2023-07-30T02:25:17;3.08;;;2.10;;
24485;SDS011;13449;49.374;8.584;2023-07-30T02:27:44;4.50;;;2.08;;
24485;SDS011;13449;49.374;8.584;2023-07-30T02:30:10;2.47;;;2.00;;
24485;SDS011;13449;49.374;8.584;2023-07-30T02:32:41;6.03;;;2.08;;
24485;SDS011;13449;49.374;8.584;2023-07-30T02:35:07;4.95;;;2.25;;
24485;SDS011;13449;49.374;8.584;2023-07-30T02:37:34;5.30;;;2.28;;
24485;SDS011;13449;49.374;8.584;2023-07-30T02:40:03;1.90;;;1.80;;
24485;SDS011;13449;49.374;8.584;2023-07-30T02:42:31;2.97;;;2.10;;
24485;SDS011;13449;49.374;8.584;2023-07-30T02:45:00;4.55;;;2.05;;
24485;SDS011;13449;49.374;8.584;2023-07-30T02:47:27;3.40;;;2.45;;
24485;SDS011;13449;49.374;8.584;2023-07-30T02:49:53;4.68;;;2.22;;
24485;SDS011;13449;49.374;8.584;2023-07-30T02:52:20;4.05;;;2.05;;
24485;SDS011;13449;49.374;8.584;2023-07-30T02:54:46;3.88;;;1.98;;
24485;SDS011;13449;49.374;8.584;2023-07-30T02:57:13;10.10;;;2.13;;
24485;SDS011;13449;49.374;8.584;2023-07-30T02:59:40;7.68;;;1.75;;
24485;SDS011;13449;49.374;8.584;2023-07-30T03:02:07;3.67;;;2.13;;
24485;SDS011;13449;49.374;8.584;2023-07-30T03:04:33;3.65;;;2.10;;
24485;SDS011;13449;49.374;8.584;2023-07-30T03:07:00;6.40;;;1.77;;
24485;SDS011;13449;49.374;8.584;2023-07-30T03:09:26;9.00;;;2.05;;
24485;SDS011;13449;49.374;8.584;2023-07-30T03:11:55;4.57;;;1.70;;
24485;SDS011;13449;49.374;8.584;2023-07-30T03:14:22;3.35;;;2.42;;
24485;SDS011;13449;49.374;8.584;2023-07-30T03:16:51;5.13;;;2.90;;
24485;SDS011;13449;49.374;8.584;2023-07-30T03:19:20;5.03;;;2.30;;
24485;SDS011;13449;49.374;8.584;2023-07-30T03:21:46;9.48;;;1.80;;
24485;SDS011;13449;49.374;8.584;2023-07-30T03:24:15;3.88;;;1.85;;
24485;SDS011;13449;49.374;8.584;2023-07-30T03:26:44;2.00;;;1.75;;
24485;SDS011;13449;49.374;8.584;2023-07-30T03:29:11;3.17;;;1.80;;
24485;SDS011;13449;49.374;8.584;2023-07-30T03:31:37;4.60;;;1.70;;
24485;SDS011;13449;49.374;8.584;2023-07-30T03:34:04;2.88;;;1.98;;
24485;SDS011;13449;49.374;8.584;2023-07-30T03:36:31;2.22;;;2.03;;
24485;SDS011;13449;49.374;8.584;2023-07-30T03:38:57;6.20;;;1.90;;
24485;SDS011;13449;49.374;8.584;2023-07-30T03:41:24;15.43;;;2.47;;
24485;SDS011;13449;49.374;8.584;2023-07-30T03:43:51;4.45;;;1.77;;
24485;SDS011;13449;49.374;8.584;2023-07-30T03:46:17;14.07;;;2.20;;
24485;SDS011;13449;49.374;8.584;2023-07-30T03:48:44;7.97;;;2.25;;
24485;SDS011;13449;49.374;8.584;2023-07-30T03:51:12;3.03;;;2.10;;
24485;SDS011;13449;49.374;8.584;2023-07-30T03:53:41;3.38;;;2.28;;
24485;SDS011;13449;49.374;8.584;2023-07-30T03:56:10;7.35;;;2.47;;
24485;SDS011;13449;49.374;8.584;2023-07-30T03:58:36;8.27;;;2.13;;
24485;SDS011;13449;49.374;8.584;2023-07-30T04:01:03;3.70;;;2.08;;
24485;SDS011;13449;49.374;8.584;2023-07-30T04:03:30;1.83;;;1.73;;
24485;SDS011;13449;49.374;8.584;2023-07-30T04:05:56;2.42;;;2.22;;
24485;SDS011;13449;49.374;8.584;2023-07-30T04:08:23;3.75;;;2.70;;
24485;SDS011;13449;49.374;8.584;2023-07-30T04:10:49;6.35;;;2.10;;
24485;SDS011;13449;49.374;8.584;2023-07-30T04:13:16;7.93;;;2.20;;
24485;SDS011;13449;49.374;8.584;2023-07-30T04:15:42;18.38;;;3.13;;
24485;SDS011;13449;49.374;8.584;2023-07-30T04:18:11;3.22;;;2.33;;
24485;SDS011;13449;49.374;8.584;2023-07-30T04:20:38;5.00;;;3.08;;
24485;SDS011;13449;49.374;8.584;2023-07-30T04:23:04;3.75;;;2.30;;
24485;SDS011;13449;49.374;8.584;2023-07-30T04:25:31;5.85;;;2.67;;
24485;SDS011;13449;49.374;8.584;2023-07-30T04:27:57;2.78;;;2.30;;
24485;SDS011;13449;49.374;8.584;2023-07-30T04:30:24;9.73;;;2.80;;
24485;SDS011;13449;49.374;8.584;2023-07-30T04:32:51;4.03;;;2.17;;
24485;SDS011;13449;49.374;8.584;2023-07-30T04:35:17;11.85;;;3.60;;
24485;SDS011;13449;49.374;8.584;2023-07-30T04:37:44;5.28;;;2.92;;
24485;SDS011;13449;49.374;8.584;2023-07-30T04:40:10;3.55;;;2.67;;
24485;SDS011;13449;49.374;8.584;2023-07-30T04:42:37;10.27;;;2.80;;
24485;SDS011;13449;49.374;8.584;2023-07-30T04:45:03;5.75;;;2.42;;
24485;SDS011;13449;49.374;8.584;2023-07-30T04:47:30;3.53;;;2.10;;
24485;SDS011;13449;49.374;8.584;2023-07-30T04:49:57;9.02;;;2.50;;
24485;SDS011;13449;49.374;8.584;2023-07-30T04:52:23;5.97;;;3.05;;
24485;SDS011;13449;49.374;8.584;2023-07-30T04:54:50;10.05;;;2.90;;
24485;SDS011;13449;49.374;8.584;2023-07-30T04:57:16;5.60;;;2.90;;
24485;SDS011;13449;49.374;8.584;2023-07-30T04:59:43;3.40;;;2.50;;
24485;SDS011;13449;49.374;8.584;2023-07-30T05:02:09;3.20;;;2.80;;
24485;SDS011;13449;49.374;8.584;2023-07-30T05:04:41;6.20;;;3.03;;
24485;SDS011;13449;49.374;8.584;2023-07-30T05:07:07;3.97;;;2.80;;
24485;SDS011;13449;49.374;8.584;2023-07-30T05:09:34;7.15;;;3.40;;
24485;SDS011;13449;49.374;8.584;2023-07-30T05:12:00;3.00;;;2.60;;
24485;SDS011;13449;49.374;8.584;2023-07-30T05:14:26;4.35;;;2.63;;
24485;SDS011;13449;49.374;8.584;2023-07-30T05:16:53;2.97;;;2.67;;
24485;SDS011;13449;49.374;8.584;2023-07-30T05:19:21;8.00;;;3.38;;
24485;SDS011;13449;49.374;8.584;2023-07-30T05:21:48;13.30;;;2.67;;
24485;SDS011;13449;49.374;8.584;2023-07-30T05:24:14;6.25;;;3.05;;
24485;SDS011;13449;49.374;8.584;2023-07-30T05:26:41;5.68;;;2.97;;
24485;SDS011;13449;49.374;8.584;2023-07-30T05:29:07;4.82;;;3.17;;
24485;SDS011;13449;49.374;8.584;2023-07-30T05:31:34;10.23;;;3.53;;
24485;SDS011;13449;49.374;8.584;2023-07-30T05:34:01;12.43;;;3.05;;
24485;SDS011;13449;49.374;8.584;2023-07-30T05:36:27;5.35;;;3.00;;
24485;SDS011;13449;49.374;8.584;2023-07-30T05:38:54;4.50;;;3.05;;
24485;SDS011;13449;49.374;8.584;2023-07-30T05:41:23;4.45;;;3.78;;
24485;SDS011;13449;49.374;8.584;2023-07-30T05:43:50;5.47;;;4.50;;
24485;SDS011;13449;49.374;8.584;2023-07-30T05:46:16;5.50;;;4.00;;
24485;SDS011;13449;49.374;8.584;2023-07-30T05:48:43;11.23;;;4.95;;
24485;SDS011;13449;49.374;8.584;2023-07-30T05:51:09;9.15;;;4.50;;
24485;SDS011;13449;49.374;8.584;2023-07-30T05:53:36;10.00;;;4.85;;
24485;SDS011;13449;49.374;8.584;2023-07-30T05:56:03;12.15;;;6.00;;
24485;SDS011;13449;49.374;8.584;2023-07-30T05:58:30;11.88;;;6.65;;
24485;SDS011;13449;49.374;8.584;2023-07-30T06:00:59;13.00;;;7.15;;
24485;SDS011;13449;49.374;8.584;2023-07-30T06:03:28;10.68;;;6.63;;
24485;SDS011;13449;49.374;8.584;2023-07-30T06:05:54;9.40;;;6.07;;
24485;SDS011;13449;49.374;8.584;2023-07-30T06:08:21;12.18;;;6.05;;
24485;SDS011;13449;49.374;8.584;2023-07-30T06:10:48;8.77;;;6.05;;
24485;SDS011;13449;49.374;8.584;2023-07-30T06:13:14;10.55;;;5.47;;
24485;SDS011;13449;49.374;8.584;2023-07-30T06:15:41;11.77;;;5.43;;
24485;SDS011;13449;49.374;8.584;2023-07-30T06:18:07;13.88;;;5.55;;
24485;SDS011;13449;49.374;8.584;2023-07-30T06:20:34;7.32;;;5.82;;
24485;SDS011;13449;49.374;8.584;2023-07-30T06:23:00;7.38;;;4.65;;
24485;SDS011;13449;49.374;8.584;2023-07-30T06:25:30;8.02;;;4.90;;
24485;SDS011;13449;49.374;8.584;2023-07-30T06:27:57;11.00;;;4.70;;
24485;SDS011;13449;49.374;8.584;2023-07-30T06:30:26;6.65;;;4.72;;
24485;SDS011;13449;49.374;8.584;2023-07-30T06:32:52;9.75;;;4.70;;
24485;SDS011;13449;49.374;8.584;2023-07-30T06:35:19;6.60;;;4.68;;
24485;SDS011;13449;49.374;8.584;2023-07-30T06:40:17;4.43;;;4.03;;
24485;SDS011;13449;49.374;8.584;2023-07-30T06:42:44;4.63;;;4.22;;
24485;SDS011;13449;49.374;8.584;2023-07-30T06:45:10;4.53;;;3.65;;
24485;SDS011;13449;49.374;8.584;2023-07-30T06:47:44;5.25;;;3.70;;
24485;SDS011;13449;49.374;8.584;2023-07-30T06:50:13;4.90;;;3.60;;
24485;SDS011;13449;49.374;8.584;2023-07-30T06:52:42;11.80;;;3.88;;
24485;SDS011;13449;49.374;8.584;2023-07-30T06:55:09;6.43;;;3.53;;
24485;SDS011;13449;49.374;8.584;2023-07-30T06:57:38;3.72;;;3.40;;
24485;SDS011;13449;49.374;8.584;2023-07-30T07:00:07;8.43;;;3.80;;
24485;SDS011;13449;49.374;8.584;2023-07-30T07:02:39;5.63;;;3.45;;
24485;SDS011;13449;49.374;8.584;2023-07-30T07:05:13;4.32;;;3.45;;
24485;SDS011;13449;49.374;8.584;2023-07-30T07:07:44;6.60;;;3.58;;
24485;SDS011;13449;49.374;8.584;2023-07-30T07:10:11;12.93;;;3.50;;
24485;SDS011;13449;49.374;8.584;2023-07-30T07:12:38;7.85;;;3.03;;
24485;SDS011;13449;49.374;8.584;2023-07-30T07:15:05;4.45;;;4.05;;
24485;SDS011;13449;49.374;8.584;2023-07-30T07:17:34;11.32;;;3.97;;
24485;SDS011;13449;49.374;8.584;2023-07-30T07:20:01;9.00;;;4.50;;
24485;SDS011;13449;49.374;8.584;2023-07-30T07:22:31;13.48;;;4.15;;
24485;SDS011;13449;49.374;8.584;2023-07-30T07:25:00;11.70;;;3.83;;
24485;SDS011;13449;49.374;8.584;2023-07-30T07:27:26;5.55;;;3.97;;
24485;SDS011;13449;49.374;8.584;2023-07-30T07:29:52;7.85;;;3.88;;
24485;SDS011;13449;49.374;8.584;2023-07-30T07:32:19;6.95;;;4.10;;
24485;SDS011;13449;49.374;8.584;2023-07-30T07:35:00;9.10;;;3.60;;
24485;SDS011;13449;49.374;8.584;2023-07-30T07:37:26;4.60;;;3.00;;
24485;SDS011;13449;49.374;8.584;2023-07-30T07:39:57;4.00;;;3.47;;
24485;SDS011;13449;49.374;8.584;2023-07-30T07:42:24;3.72;;;3.35;;
24485;SDS011;13449;49.374;8.584;2023-07-30T07:44:53;6.18;;;4.07;;
24485;SDS011;13449;49.374;8.584;2023-07-30T07:47:19;5.47;;;3.13;;
24485;SDS011;13449;49.374;8.584;2023-07-30T07:49:46;2.97;;;2.67;;
24485;SDS011;13449;49.374;8.584;2023-07-30T07:52:12;7.43;;;3.40;;
24485;SDS011;13449;49.374;8.584;2023-07-30T07:54:43;3.67;;;2.83;;
24485;SDS011;13449;49.374;8.584;2023-07-30T07:57:10;3.50;;;3.20;;
24485;SDS011;13449;49.374;8.584;2023-07-30T07:59:36;4.18;;;3.25;;
24485;SDS011;13449;49.374;8.584;2023-07-30T08:02:03;3.17;;;2.67;;
24485;SDS011;13449;49.374;8.584;2023-07-30T08:04:32;7.22;;;3.42;;
24485;SDS011;13449;49.374;8.584;2023-07-30T08:06:58;5.03;;;2.85;;
24485;SDS011;13449;49.374;8.584;2023-07-30T08:09:29;4.40;;;3.28;;
24485;SDS011;13449;49.374;8.584;2023-07-30T08:11:56;10.40;;;2.95;;
24485;SDS011;13449;49.374;8.584;2023-07-30T08:14:22;6.80;;;3.22;;
24485;SDS011;13449;49.374;8.584;2023-07-30T08:16:49;3.78;;;3.03;;
24485;SDS011;13449;49.374;8.584;2023-07-30T08:19:15;5.50;;;2.88;;
24485;SDS011;13449;49.374;8.584;2023-07-30T08:21:42;4.85;;;3.22;;
24485;SDS011;13449;49.374;8.584;2023-07-30T08:24:11;4.63;;;3.35;;
24485;SDS011;13449;49.374;8.584;2023-07-30T08:26:37;6.45;;;3.13;;
24485;SDS011;13449;49.374;8.584;2023-07-30T08:29:07;3.55;;;3.25;;
24485;SDS011;13449;49.374;8.584;2023-07-30T08:31:36;4.93;;;3.13;;
24485;SDS011;13449;49.374;8.584;2023-07-30T08:34:03;5.05;;;3.28;;
24485;SDS011;13449;49.374;8.584;2023-07-30T08:36:29;3.03;;;2.78;;
24485;SDS011;13449;49.374;8.584;2023-07-30T08:38:56;3.42;;;3.13;;
24485;SDS011;13449;49.374;8.584;2023-07-30T08:41:26;12.27;;;3.35;;
24485;SDS011;13449;49.374;8.584;2023-07-30T08:43:55;4.60;;;3.30;;
24485;SDS011;13449;49.374;8.584;2023-07-30T08:46:23;9.45;;;3.10;;
24485;SDS011;13449;49.374;8.584;2023-07-30T08:48:50;5.15;;;2.30;;
24485;SDS011;13449;49.374;8.584;2023-07-30T08:51:16;2.50;;;2.20;;
24485;SDS011;13449;49.374;8.584;2023-07-30T08:53:44;2.35;;;2.13;;
24485;SDS011;13449;49.374;8.584;2023-07-30T08:56:11;5.05;;;1.88;;
24485;SDS011;13449;49.374;8.584;2023-07-30T08:58:38;1.92;;;1.63;;
24485;SDS011;13449;49.374;8.584;2023-07-30T09:01:06;2.13;;;1.75;;
24485;SDS011;13449;49.374;8.584;2023-07-30T09:03:37;2.72;;;1.80;;
24485;SDS011;13449;49.374;8.584;2023-07-30T09:06:05;2.10;;;1.60;;
24485;SDS011;13449;49.374;8.584;2023-07-30T09:08:34;3.40;;;1.10;;
24485;SDS011;13449;49.374;8.584;2023-07-30T09:11:07;3.92;;;1.55;;
24485;SDS011;13449;49.374;8.584;2023-07-30T09:13:38;4.10;;;1.83;;
24485;SDS011;13449;49.374;8.584;2023-07-30T09:16:12;7.97;;;1.40;;
24485;SDS011;13449;49.374;8.584;2023-07-30T09:18:44;1.58;;;1.08;;
24485;SDS011;13449;49.374;8.584;2023-07-30T09:21:14;4.93;;;1.30;;
24485;SDS011;13449;49.374;8.584;2023-07-30T09:23:41;1.70;;;1.27;;
24485;SDS011;13449;49.374;8.584;2023-07-30T09:26:10;2.95;;;1.35;;
24485;SDS011;13449;49.374;8.584;2023-07-30T09:28:39;8.63;;;1.60;;
24485;SDS011;13449;49.374;8.584;2023-07-30T09:31:07;1.15;;;1.05;;
24485;SDS011;13449;49.374;8.584;2023-07-30T09:33:47;1.95;;;1.13;;
24485;SDS011;13449;49.374;8.584;2023-07-30T09:36:14;2.03;;;1.10;;
24485;SDS011;13449;49.374;8.584;2023-07-30T09:38:45;3.03;;;1.58;;
24485;SDS011;13449;49.374;8.584;2023-07-30T09:41:12;1.00;;;0.98;;
24485;SDS011;13449;49.374;8.584;2023-07-30T09:43:40;9.00;;;1.25;;
24485;SDS011;13449;49.374;8.584;2023-07-30T09:46:10;1.33;;;1.02;;
24485;SDS011;13449;49.374;8.584;2023-07-30T09:48:36;3.47;;;1.60;;
24485;SDS011;13449;49.374;8.584;2023-07-30T09:51:03;1.73;;;1.27;;
24485;SDS011;13449;49.374;8.584;2023-07-30T09:53:30;1.73;;;1.55;;
24485;SDS011;13449;49.374;8.584;2023-07-30T09:56:04;9.77;;;1.37;;
24485;SDS011;13449;49.374;8.584;2023-07-30T09:58:34;5.35;;;1.35;;
24485;SDS011;13449;49.374;8.584;2023-07-30T10:01:04;1.45;;;1.35;;
24485;SDS011;13449;49.374;8.584;2023-07-30T10:03:31;3.33;;;1.48;;
24485;SDS011;13449;49.374;8.584;2023-07-30T10:06:04;3.13;;;1.23;;
24485;SDS011;13449;49.374;8.584;2023-07-30T10:08:34;3.92;;;1.23;;
24485;SDS011;13449;49.374;8.584;2023-07-30T10:11:04;7.75;;;1.40;;
24485;SDS011;13449;49.374;8.584;2023-07-30T10:13:33;15.18;;;3.05;;
24485;SDS011;13449;49.374;8.584;2023-07-30T10:16:01;1.85;;;0.70;;
24485;SDS011;13449;49.374;8.584;2023-07-30T10:18:37;1.05;;;0.90;;
24485;SDS011;13449;49.374;8.584;2023-07-30T10:21:08;3.78;;;1.50;;
24485;SDS011;13449;49.374;8.584;2023-07-30T10:23:36;2.35;;;1.15;;
24485;SDS011;13449;49.374;8.584;2023-07-30T10:26:11;3.15;;;1.00;;
24485;SDS011;13449;49.374;8.584;2023-07-30T10:28:38;3.47;;;1.33;;
24485;SDS011;13449;49.374;8.584;2023-07-30T10:31:09;1.60;;;1.05;;
24485;SDS011;13449;49.374;8.584;2023-07-30T10:33:51;1.00;;;0.88;;
24485;SDS011;13449;49.374;8.584;2023-07-30T10:36:30;1.80;;;1.00;;
24485;SDS011;13449;49.374;8.584;2023-07-30T10:39:03;1.60;;;1.10;;
24485;SDS011;13449;49.374;8.584;2023-07-30T10:41:37;2.22;;;1.05;;
24485;SDS011;13449;49.374;8.584;2023-07-30T10:44:07;0.80;;;0.80;;
24485;SDS011;13449;49.374;8.584;2023-07-30T10:46:44;3.03;;;1.83;;
24485;SDS011;13449;49.374;8.584;2023-07-30T10:49:11;1.85;;;0.90;;
24485;SDS011;13449;49.374;8.584;2023-07-30T10:51:40;2.63;;;0.70;;
24485;SDS011;13449;49.374;8.584;2023-07-30T10:54:07;1.23;;;1.13;;
24485;SDS011;13449;49.374;8.584;2023-07-30T10:56:35;2.47;;;0.80;;
24485;SDS011;13449;49.374;8.584;2023-07-30T10:59:04;2.05;;;0.85;;
24485;SDS011;13449;49.374;8.584;2023-07-30T11:01:41;3.38;;;1.48;;
24485;SDS011;13449;49.374;8.584;2023-07-30T11:04:09;2.22;;;1.00;;
24485;SDS011;13449;49.374;8.584;2023-07-30T11:06:37;1.02;;;0.90;;
24485;SDS011;13449;49.374;8.584;2023-07-30T11:09:04;3.13;;;0.80;;
24485;SDS011;13449;49.374;8.584;2023-07-30T11:11:34;3.67;;;1.10;;
24485;SDS011;13449;49.374;8.584;2023-07-30T11:14:01;2.67;;;0.80;;
24485;SDS011;13449;49.374;8.584;2023-07-30T11:16:27;3.30;;;0.88;;
24485;SDS011;13449;49.374;8.584;2023-07-30T11:18:54;4.97;;;0.80;;
24485;SDS011;13449;49.374;8.584;2023-07-30T11:21:21;1.02;;;0.93;;
24485;SDS011;13449;49.374;8.584;2023-07-30T11:23:47;3.50;;;0.80;;
24485;SDS011;13449;49.374;8.584;2023-07-30T11:26:17;2.88;;;1.05;;
24485;SDS011;13449;49.374;8.584;2023-07-30T11:28:48;2.47;;;0.80;;
24485;SDS011;13449;49.374;8.584;2023-07-30T11:31:18;1.20;;;0.60;;
24485;SDS011;13449;49.374;8.584;2023-07-30T11:33:48;1.00;;;0.80;;
24485;SDS011;13449;49.374;8.584;2023-07-30T11:36:16;1.15;;;0.70;;
24485;SDS011;13449;49.374;8.584;2023-07-30T11:38:47;3.00;;;0.70;;
24485;SDS011;13449;49.374;8.584;2023-07-30T11:41:16;3.03;;;0.93;;
24485;SDS011;13449;49.374;8.584;2023-07-30T11:43:43;10.75;;;0.88;;
24485;SDS011;13449;49.374;8.584;2023-07-30T11:46:14;1.42;;;0.80;;
24485;SDS011;13449;49.374;8.584;2023-07-30T11:48:44;3.88;;;0.88;;
24485;SDS011;13449;49.374;8.584;2023-07-30T11:51:45;0.90;;;0.88;;
24485;SDS011;13449;49.374;8.584;2023-07-30T11:54:05;2.05;;;1.08;;
24485;SDS011;13449;49.374;8.584;2023-07-30T11:56:32;1.23;;;0.77;;
24485;SDS011;13449;49.374;8.584;2023-07-30T11:59:00;2.72;;;0.85;;
24485;SDS011;13449;49.374;8.584;2023-07-30T12:01:31;1.17;;;0.75;;
24485;SDS011;13449;49.374;8.584;2023-07-30T12:04:01;1.45;;;0.90;;
24485;SDS011;13449;49.374;8.584;2023-07-30T12:06:38;1.48;;;0.70;;
24485;SDS011;13449;49.374;8.584;2023-07-30T12:09:13;4.22;;;0.70;;
24485;SDS011;13449;49.374;8.584;2023-07-30T12:14:27;9.13;;;1.10;;
24485;SDS011;13449;49.374;8.584;2023-07-30T12:17:14;1.42;;;0.88;;
24485;SDS011;13449;49.374;8.584;2023-07-30T12:19:41;2.25;;;0.90;;
24485;SDS011;13449;49.374;8.584;2023-07-30T12:22:10;2.83;;;0.73;;
24485;SDS011;13449;49.374;8.584;2023-07-30T12:24:37;3.40;;;1.00;;
24485;SDS011;13449;49.374;8.584;2023-07-30T12:27:06;2.58;;;0.77;;
24485;SDS011;13449;49.374;8.584;2023-07-30T12:29:33;5.72;;;0.98;;
24485;SDS011;13449;49.374;8.584;2023-07-30T12:31:59;2.03;;;1.00;;
24485;SDS011;13449;49.374;8.584;2023-07-30T12:34:29;4.60;;;1.15;;
24485;SDS011;13449;49.374;8.584;2023-07-30T12:36:56;3.58;;;1.05;;
24485;SDS011;13449;49.374;8.584;2023-07-30T12:39:24;4.80;;;0.60;;
24485;SDS011;13449;49.374;8.584;2023-07-30T12:41:50;3.88;;;0.77;;
24485;SDS011;13449;49.374;8.584;2023-07-30T12:44:17;3.00;;;0.50;;
24485;SDS011;13449;49.374;8.584;2023-07-30T12:46:43;3.53;;;1.00;;
24485;SDS011;13449;49.374;8.584;2023-07-30T12:49:12;2.78;;;1.00;;
24485;SDS011;13449;49.374;8.584;2023-07-30T12:51:38;4.00;;;0.85;;
24485;SDS011;13449;49.374;8.584;2023-07-30T12:54:05;2.38;;;0.88;;
24485;SDS011;13449;49.374;8.584;2023-07-30T12:56:34;1.42;;;0.70;;
24485;SDS011;13449;49.374;8.584;2023-07-30T12:59:03;1.88;;;0.90;;
24485;SDS011;13449;49.374;8.584;2023-07-30T13:01:29;6.53;;;1.05;;
24485;SDS011;13449;49.374;8.584;2023-07-30T13:03:56;4.13;;;1.02;;
24485;SDS011;13449;49.374;8.584;2023-07-30T13:06:22;5.53;;;0.82;;
24485;SDS011;13449;49.374;8.584;2023-07-30T13:08:51;4.43;;;1.10;;
24485;SDS011;13449;49.374;8.584;2023-07-30T13:11:20;10.27;;;1.02;;
24485;SDS011;13449;49.374;8.584;2023-07-30T13:13:47;4.75;;;0.93;;
24485;SDS011;13449;49.374;8.584;2023-07-30T13:16:16;1.80;;;0.77;;
24485;SDS011;13449;49.374;8.584;2023-07-30T13:18:42;1.95;;;0.80;;
24485;SDS011;13449;49.374;8.584;2023-07-30T13:21:09;3.13;;;0.77;;
24485;SDS011;13449;49.374;8.584;2023-07-30T13:23:37;2.72;;;0.80;;
24485;SDS011;13449;49.374;8.584;2023-07-30T13:26:04;2.95;;;0.88;;
24485;SDS011;13449;49.374;8.584;2023-07-30T13:28:30;2.13;;;1.00;;
24485;SDS011;13449;49.374;8.584;2023-07-30T13:30:57;5.38;;;1.15;;
24485;SDS011;13449;49.374;8.584;2023-07-30T13:33:23;4.47;;;0.80;;
24485;SDS011;13449;49.374;8.584;2023-07-30T13:35:50;3.50;;;0.80;;
24485;SDS011;13449;49.374;8.584;2023-07-30T13:38:21;5.18;;;1.27;;
24485;SDS011;13449;49.374;8.584;2023-07-30T13:40:48;3.88;;;1.00;;
24485;SDS011;13449;49.374;8.584;2023-07-30T13:43:15;1.30;;;0.75;;
24485;SDS011;13449;49.374;8.584;2023-07-30T13:45:42;2.53;;;1.00;;
24485;SDS011;13449;49.374;8.584;2023-07-30T13:48:08;3.15;;;0.90;;
24485;SDS011;13449;49.374;8.584;2023-07-30T13:50:37;4.28;;;1.17;;
24485;SDS011;13449;49.374;8.584;2023-07-30T13:53:03;5.82;;;1.20;;
24485;SDS011;13449;49.374;8.584;2023-07-30T13:55:30;2.63;;;0.70;;
24485;SDS011;13449;49.374;8.584;2023-07-30T13:57:57;3.22;;;1.20;;
24485;SDS011;13449;49.374;8.584;2023-07-30T14:00:23;3.97;;;1.05;;
24485;SDS011;13449;49.374;8.584;2023-07-30T14:02:52;5.05;;;0.93;;
24485;SDS011;13449;49.374;8.584;2023-07-30T14:05:19;3.25;;;1.10;;
24485;SDS011;13449;49.374;8.584;2023-07-30T14:07:45;3.33;;;1.13;;
24485;SDS011;13449;49.374;8.584;2023-07-30T14:10:12;9.35;;;1.13;;
24485;SDS011;13449;49.374;8.584;2023-07-30T14:12:38;5.88;;;1.40;;
24485;SDS011;13449;49.374;8.584;2023-07-30T14:15:07;5.90;;;1.13;;
24485;SDS011;13449;49.374;8.584;2023-07-30T14:17:35;1.52;;;0.93;;
24485;SDS011;13449;49.374;8.584;2023-07-30T14:20:01;5.50;;;1.20;;
24485;SDS011;13449;49.374;8.584;2023-07-30T14:22:30;4.13;;;1.52;;
24485;SDS011;13449;49.374;8.584;2023-07-30T14:24:57;2.85;;;0.98;;
24485;SDS011;13449;49.374;8.584;2023-07-30T14:27:24;3.53;;;1.30;;
24485;SDS011;13449;49.374;8.584;2023-07-30T14:29:51;2.80;;;0.85;;
24485;SDS011;13449;49.374;8.584;2023-07-30T14:32:21;3.38;;;1.02;;
24485;SDS011;13449;49.374;8.584;2023-07-30T14:34:47;1.35;;;0.90;;
24485;SDS011;13449;49.374;8.584;2023-07-30T14:37:14;13.88;;;1.00;;
24485;SDS011;13449;49.374;8.584;2023-07-30T14:39:41;6.05;;;1.15;;
24485;SDS011;13449;49.374;8.584;2023-07-30T14:42:10;3.85;;;0.93;;
24485;SDS011;13449;49.374;8.584;2023-07-30T14:44:37;4.10;;;1.20;;
24485;SDS011;13449;49.374;8.584;2023-07-30T14:47:05;3.08;;;0.90;;
24485;SDS011;13449;49.374;8.584;2023-07-30T14:49:34;4.07;;;0.80;;
24485;SDS011;13449;49.374;8.584;2023-07-30T14:52:01;11.05;;;1.40;;
24485;SDS011;13449;49.374;8.584;2023-07-30T14:54:29;4.90;;;1.10;;